sensor_id;sensor_type;location;lat;lon;timestamp;P1;durP1;ratioP1;P2;durP2;ratioP2
59008;SDS011;44794;42.652;23.318;2023-06-04T00:01:11;14.32;;;10.88;;
59008;SDS011;44794;42.652;23.318;2023-06-04T00:03:36;15.85;;;11.07;;
59008;SDS011;44794;42.652;23.318;2023-06-04T00:06:02;15.38;;;11.32;;
59008;SDS011;44794;42.652;23.318;2023-06-04T00:08:27;16.85;;;10.75;;
59008;SDS011;44794;42.652;23.318;2023-06-04T00:10:53;14.98;;;11.30;;
59008;SDS011;44794;42.652;23.318;2023-06-04T00:13:18;15.27;;;11.30;;
59008;SDS011;44794;42.652;23.318;2023-06-04T00:15:44;15.60;;;11.75;;
59008;SDS011;44794;42.652;23.318;2023-06-04T00:18:10;15.48;;;11.73;;
59008;SDS011;44794;42.652;23.318;2023-06-04T00:20:38;15.45;;;11.70;;
59008;SDS011;44794;42.652;23.318;2023-06-04T00:23:03;17.92;;;11.30;;
59008;SDS011;44794;42.652;23.318;2023-06-04T00:25:29;20.33;;;12.13;;
59008;SDS011;44794;42.652;23.318;2023-06-04T00:27:54;21.38;;;12.43;;
59008;SDS011;44794;42.652;23.318;2023-06-04T00:30:20;16.67;;;12.82;;
59008;SDS011;44794;42.652;23.318;2023-06-04T00:32:45;16.65;;;13.55;;
59008;SDS011;44794;42.652;23.318;2023-06-04T00:35:12;18.02;;;12.88;;
59008;SDS011;44794;42.652;23.318;2023-06-04T00:37:37;10.50;;;8.30;;
59008;SDS011;44794;42.652;23.318;2023-06-04T00:40:03;9.13;;;7.45;;
59008;SDS011;44794;42.652;23.318;2023-06-04T00:42:30;9.02;;;7.72;;
59008;SDS011;44794;42.652;23.318;2023-06-04T00:44:56;9.50;;;7.35;;
59008;SDS011;44794;42.652;23.318;2023-06-04T00:47:23;8.88;;;7.40;;
59008;SDS011;44794;42.652;23.318;2023-06-04T00:49:49;9.25;;;7.28;;
59008;SDS011;44794;42.652;23.318;2023-06-04T00:52:15;8.73;;;7.38;;
59008;SDS011;44794;42.652;23.318;2023-06-04T00:54:41;9.20;;;7.20;;
59008;SDS011;44794;42.652;23.318;2023-06-04T00:57:07;9.02;;;7.45;;
59008;SDS011;44794;42.652;23.318;2023-06-04T00:59:35;10.43;;;7.95;;
59008;SDS011;44794;42.652;23.318;2023-06-04T01:02:06;9.95;;;7.50;;
59008;SDS011;44794;42.652;23.318;2023-06-04T01:04:39;9.18;;;7.28;;
59008;SDS011;44794;42.652;23.318;2023-06-04T01:07:15;10.32;;;8.20;;
59008;SDS011;44794;42.652;23.318;2023-06-04T01:09:41;11.52;;;8.45;;
59008;SDS011;44794;42.652;23.318;2023-06-04T01:12:09;8.30;;;6.57;;
59008;SDS011;44794;42.652;23.318;2023-06-04T01:14:36;9.40;;;7.47;;
59008;SDS011;44794;42.652;23.318;2023-06-04T01:17:25;9.13;;;6.70;;
59008;SDS011;44794;42.652;23.318;2023-06-04T01:20:02;11.30;;;8.07;;
59008;SDS011;44794;42.652;23.318;2023-06-04T01:25:14;11.32;;;7.18;;
59008;SDS011;44794;42.652;23.318;2023-06-04T01:27:46;12.70;;;7.85;;
59008;SDS011;44794;42.652;23.318;2023-06-04T01:30:14;8.80;;;7.27;;
59008;SDS011;44794;42.652;23.318;2023-06-04T01:32:40;10.13;;;8.07;;
59008;SDS011;44794;42.652;23.318;2023-06-04T01:35:10;10.10;;;8.18;;
59008;SDS011;44794;42.652;23.318;2023-06-04T01:37:36;11.13;;;8.65;;
59008;SDS011;44794;42.652;23.318;2023-06-04T01:40:02;13.70;;;9.20;;
59008;SDS011;44794;42.652;23.318;2023-06-04T01:42:28;13.20;;;9.82;;
59008;SDS011;44794;42.652;23.318;2023-06-04T01:44:53;13.10;;;10.52;;
59008;SDS011;44794;42.652;23.318;2023-06-04T01:47:19;14.00;;;11.23;;
59008;SDS011;44794;42.652;23.318;2023-06-04T01:49:44;18.10;;;13.35;;
59008;SDS011;44794;42.652;23.318;2023-06-04T01:52:09;21.33;;;13.30;;
59008;SDS011;44794;42.652;23.318;2023-06-04T01:54:36;19.05;;;13.02;;
59008;SDS011;44794;42.652;23.318;2023-06-04T01:57:03;18.17;;;13.15;;
59008;SDS011;44794;42.652;23.318;2023-06-04T01:59:28;16.38;;;12.60;;
59008;SDS011;44794;42.652;23.318;2023-06-04T02:01:54;17.63;;;12.90;;
59008;SDS011;44794;42.652;23.318;2023-06-04T02:04:20;14.57;;;11.30;;
59008;SDS011;44794;42.652;23.318;2023-06-04T02:06:46;12.52;;;9.50;;
59008;SDS011;44794;42.652;23.318;2023-06-04T02:09:13;12.25;;;9.27;;
59008;SDS011;44794;42.652;23.318;2023-06-04T02:11:39;8.95;;;7.97;;
59008;SDS011;44794;42.652;23.318;2023-06-04T02:14:04;9.77;;;7.43;;
59008;SDS011;44794;42.652;23.318;2023-06-04T02:16:30;7.25;;;6.07;;
59008;SDS011;44794;42.652;23.318;2023-06-04T02:18:55;5.60;;;5.00;;
59008;SDS011;44794;42.652;23.318;2023-06-04T02:21:21;5.93;;;4.78;;
59008;SDS011;44794;42.652;23.318;2023-06-04T02:23:46;7.03;;;5.07;;
59008;SDS011;44794;42.652;23.318;2023-06-04T02:26:12;5.50;;;4.93;;
59008;SDS011;44794;42.652;23.318;2023-06-04T02:28:37;6.85;;;5.15;;
59008;SDS011;44794;42.652;23.318;2023-06-04T02:31:02;7.45;;;5.25;;
59008;SDS011;44794;42.652;23.318;2023-06-04T02:33:28;6.22;;;5.35;;
59008;SDS011;44794;42.652;23.318;2023-06-04T02:35:54;6.15;;;4.90;;
59008;SDS011;44794;42.652;23.318;2023-06-04T02:38:20;6.25;;;5.40;;
59008;SDS011;44794;42.652;23.318;2023-06-04T02:40:46;6.07;;;5.10;;
59008;SDS011;44794;42.652;23.318;2023-06-04T02:43:11;7.32;;;5.50;;
59008;SDS011;44794;42.652;23.318;2023-06-04T02:45:37;7.32;;;5.18;;
59008;SDS011;44794;42.652;23.318;2023-06-04T02:48:02;5.32;;;4.75;;
59008;SDS011;44794;42.652;23.318;2023-06-04T02:50:27;6.32;;;5.38;;
59008;SDS011;44794;42.652;23.318;2023-06-04T02:52:53;6.78;;;5.00;;
59008;SDS011;44794;42.652;23.318;2023-06-04T02:55:18;5.80;;;5.15;;
59008;SDS011;44794;42.652;23.318;2023-06-04T02:57:44;6.53;;;5.32;;
59008;SDS011;44794;42.652;23.318;2023-06-04T03:00:10;7.00;;;5.00;;
59008;SDS011;44794;42.652;23.318;2023-06-04T03:02:47;5.13;;;4.18;;
59008;SDS011;44794;42.652;23.318;2023-06-04T03:05:14;8.10;;;5.75;;
59008;SDS011;44794;42.652;23.318;2023-06-04T03:07:41;6.57;;;5.05;;
59008;SDS011;44794;42.652;23.318;2023-06-04T03:10:11;6.63;;;4.78;;
59008;SDS011;44794;42.652;23.318;2023-06-04T03:12:38;6.55;;;5.25;;
59008;SDS011;44794;42.652;23.318;2023-06-04T03:15:03;6.05;;;4.80;;
59008;SDS011;44794;42.652;23.318;2023-06-04T03:17:30;7.57;;;5.30;;
59008;SDS011;44794;42.652;23.318;2023-06-04T03:19:56;6.80;;;4.65;;
59008;SDS011;44794;42.652;23.318;2023-06-04T03:22:22;9.20;;;5.00;;
59008;SDS011;44794;42.652;23.318;2023-06-04T03:24:47;6.05;;;5.15;;
59008;SDS011;44794;42.652;23.318;2023-06-04T03:27:13;6.75;;;5.57;;
59008;SDS011;44794;42.652;23.318;2023-06-04T03:29:38;7.90;;;5.28;;
59008;SDS011;44794;42.652;23.318;2023-06-04T03:32:05;12.82;;;5.03;;
59008;SDS011;44794;42.652;23.318;2023-06-04T03:34:31;7.53;;;5.40;;
59008;SDS011;44794;42.652;23.318;2023-06-04T03:36:56;7.03;;;4.78;;
59008;SDS011;44794;42.652;23.318;2023-06-04T03:39:22;6.97;;;5.32;;
59008;SDS011;44794;42.652;23.318;2023-06-04T03:41:48;6.97;;;5.55;;
59008;SDS011;44794;42.652;23.318;2023-06-04T03:44:17;8.13;;;5.50;;
59008;SDS011;44794;42.652;23.318;2023-06-04T03:46:43;6.78;;;5.63;;
59008;SDS011;44794;42.652;23.318;2023-06-04T03:49:09;8.63;;;6.03;;
59008;SDS011;44794;42.652;23.318;2023-06-04T03:51:36;6.88;;;5.90;;
59008;SDS011;44794;42.652;23.318;2023-06-04T03:54:02;7.38;;;5.38;;
59008;SDS011;44794;42.652;23.318;2023-06-04T03:56:28;8.43;;;5.55;;
59008;SDS011;44794;42.652;23.318;2023-06-04T03:58:53;8.48;;;5.93;;
59008;SDS011;44794;42.652;23.318;2023-06-04T04:01:19;7.88;;;5.82;;
59008;SDS011;44794;42.652;23.318;2023-06-04T04:03:44;6.53;;;5.75;;
59008;SDS011;44794;42.652;23.318;2023-06-04T04:06:13;7.82;;;6.10;;
59008;SDS011;44794;42.652;23.318;2023-06-04T04:08:39;7.10;;;5.53;;
59008;SDS011;44794;42.652;23.318;2023-06-04T04:11:07;8.10;;;5.63;;
59008;SDS011;44794;42.652;23.318;2023-06-04T04:13:33;8.02;;;5.80;;
59008;SDS011;44794;42.652;23.318;2023-06-04T04:15:59;7.50;;;6.03;;
59008;SDS011;44794;42.652;23.318;2023-06-04T04:18:24;9.32;;;6.18;;
59008;SDS011;44794;42.652;23.318;2023-06-04T04:20:50;8.25;;;5.85;;
59008;SDS011;44794;42.652;23.318;2023-06-04T04:23:16;9.13;;;6.35;;
59008;SDS011;44794;42.652;23.318;2023-06-04T04:25:42;8.73;;;6.32;;
59008;SDS011;44794;42.652;23.318;2023-06-04T04:28:09;10.55;;;6.07;;
59008;SDS011;44794;42.652;23.318;2023-06-04T04:30:34;10.18;;;6.13;;
59008;SDS011;44794;42.652;23.318;2023-06-04T04:33:00;7.03;;;5.78;;
59008;SDS011;44794;42.652;23.318;2023-06-04T04:35:27;7.57;;;6.20;;
59008;SDS011;44794;42.652;23.318;2023-06-04T04:37:54;6.40;;;5.78;;
59008;SDS011;44794;42.652;23.318;2023-06-04T04:40:19;7.72;;;6.28;;
59008;SDS011;44794;42.652;23.318;2023-06-04T04:42:45;8.45;;;6.25;;
59008;SDS011;44794;42.652;23.318;2023-06-04T04:45:11;9.15;;;6.18;;
59008;SDS011;44794;42.652;23.318;2023-06-04T04:47:37;8.82;;;6.13;;
59008;SDS011;44794;42.652;23.318;2023-06-04T04:50:03;7.13;;;6.07;;
59008;SDS011;44794;42.652;23.318;2023-06-04T04:52:29;6.32;;;5.70;;
59008;SDS011;44794;42.652;23.318;2023-06-04T04:54:55;11.40;;;6.13;;
59008;SDS011;44794;42.652;23.318;2023-06-04T04:57:22;8.85;;;6.43;;
59008;SDS011;44794;42.652;23.318;2023-06-04T04:59:48;11.13;;;6.50;;
59008;SDS011;44794;42.652;23.318;2023-06-04T05:02:14;7.88;;;6.20;;
59008;SDS011;44794;42.652;23.318;2023-06-04T05:04:40;12.45;;;6.13;;
59008;SDS011;44794;42.652;23.318;2023-06-04T05:07:05;9.63;;;6.20;;
59008;SDS011;44794;42.652;23.318;2023-06-04T05:09:31;10.07;;;6.30;;
59008;SDS011;44794;42.652;23.318;2023-06-04T05:11:56;8.23;;;6.32;;
59008;SDS011;44794;42.652;23.318;2023-06-04T05:14:22;8.07;;;5.85;;
59008;SDS011;44794;42.652;23.318;2023-06-04T05:16:48;9.38;;;5.45;;
59008;SDS011;44794;42.652;23.318;2023-06-04T05:19:15;8.68;;;5.85;;
59008;SDS011;44794;42.652;23.318;2023-06-04T05:21:42;13.20;;;6.03;;
59008;SDS011;44794;42.652;23.318;2023-06-04T05:24:08;9.88;;;5.80;;
59008;SDS011;44794;42.652;23.318;2023-06-04T05:26:35;9.13;;;6.13;;
59008;SDS011;44794;42.652;23.318;2023-06-04T05:29:01;9.13;;;6.25;;
59008;SDS011;44794;42.652;23.318;2023-06-04T05:31:26;8.52;;;6.50;;
59008;SDS011;44794;42.652;23.318;2023-06-04T05:33:52;12.20;;;6.40;;
59008;SDS011;44794;42.652;23.318;2023-06-04T05:36:17;9.07;;;6.47;;
59008;SDS011;44794;42.652;23.318;2023-06-04T05:38:43;10.23;;;6.55;;
59008;SDS011;44794;42.652;23.318;2023-06-04T05:41:08;7.88;;;6.25;;
59008;SDS011;44794;42.652;23.318;2023-06-04T05:43:34;13.55;;;6.85;;
59008;SDS011;44794;42.652;23.318;2023-06-04T05:46:00;9.77;;;6.40;;
59008;SDS011;44794;42.652;23.318;2023-06-04T05:48:25;13.55;;;7.35;;
59008;SDS011;44794;42.652;23.318;2023-06-04T05:50:51;9.13;;;6.85;;
59008;SDS011;44794;42.652;23.318;2023-06-04T05:53:16;9.73;;;6.80;;
59008;SDS011;44794;42.652;23.318;2023-06-04T05:55:42;8.52;;;7.00;;
59008;SDS011;44794;42.652;23.318;2023-06-04T05:58:08;14.57;;;7.57;;
59008;SDS011;44794;42.652;23.318;2023-06-04T06:00:33;9.30;;;7.03;;
59008;SDS011;44794;42.652;23.318;2023-06-04T06:03:00;13.35;;;7.60;;
59008;SDS011;44794;42.652;23.318;2023-06-04T06:05:26;12.63;;;7.97;;
59008;SDS011;44794;42.652;23.318;2023-06-04T06:07:52;12.25;;;7.63;;
59008;SDS011;44794;42.652;23.318;2023-06-04T06:10:17;11.38;;;8.10;;
59008;SDS011;44794;42.652;23.318;2023-06-04T06:12:43;12.57;;;8.00;;
59008;SDS011;44794;42.652;23.318;2023-06-04T06:15:08;13.57;;;9.00;;
59008;SDS011;44794;42.652;23.318;2023-06-04T06:17:35;14.55;;;9.35;;
59008;SDS011;44794;42.652;23.318;2023-06-04T06:20:00;12.18;;;9.20;;
59008;SDS011;44794;42.652;23.318;2023-06-04T06:22:29;11.80;;;8.90;;
59008;SDS011;44794;42.652;23.318;2023-06-04T06:24:54;17.25;;;9.05;;
59008;SDS011;44794;42.652;23.318;2023-06-04T06:27:20;15.00;;;9.10;;
59008;SDS011;44794;42.652;23.318;2023-06-04T06:29:46;11.73;;;8.52;;
59008;SDS011;44794;42.652;23.318;2023-06-04T06:32:11;14.07;;;8.35;;
59008;SDS011;44794;42.652;23.318;2023-06-04T06:34:36;13.30;;;8.60;;
59008;SDS011;44794;42.652;23.318;2023-06-04T06:37:06;13.90;;;8.77;;
59008;SDS011;44794;42.652;23.318;2023-06-04T06:39:31;12.00;;;8.10;;
59008;SDS011;44794;42.652;23.318;2023-06-04T06:41:57;11.50;;;7.97;;
59008;SDS011;44794;42.652;23.318;2023-06-04T06:44:22;10.52;;;7.78;;
59008;SDS011;44794;42.652;23.318;2023-06-04T06:46:48;11.50;;;7.88;;
59008;SDS011;44794;42.652;23.318;2023-06-04T06:49:14;11.27;;;7.40;;
59008;SDS011;44794;42.652;23.318;2023-06-04T06:51:40;10.10;;;7.18;;
59008;SDS011;44794;42.652;23.318;2023-06-04T06:54:08;10.93;;;7.50;;
59008;SDS011;44794;42.652;23.318;2023-06-04T06:56:33;7.38;;;6.63;;
59008;SDS011;44794;42.652;23.318;2023-06-04T06:58:59;9.80;;;7.35;;
59008;SDS011;44794;42.652;23.318;2023-06-04T07:01:24;10.60;;;7.53;;
59008;SDS011;44794;42.652;23.318;2023-06-04T07:03:50;10.50;;;6.32;;
59008;SDS011;44794;42.652;23.318;2023-06-04T07:06:15;11.38;;;7.13;;
59008;SDS011;44794;42.652;23.318;2023-06-04T07:08:41;13.57;;;7.05;;
59008;SDS011;44794;42.652;23.318;2023-06-04T07:11:07;7.88;;;6.57;;
59008;SDS011;44794;42.652;23.318;2023-06-04T07:13:36;7.28;;;6.45;;
59008;SDS011;44794;42.652;23.318;2023-06-04T07:16:02;10.70;;;7.05;;
59008;SDS011;44794;42.652;23.318;2023-06-04T07:18:28;11.60;;;6.93;;
59008;SDS011;44794;42.652;23.318;2023-06-04T07:20:53;9.15;;;7.13;;
59008;SDS011;44794;42.652;23.318;2023-06-04T07:23:19;9.88;;;7.32;;
59008;SDS011;44794;42.652;23.318;2023-06-04T07:25:44;8.90;;;6.47;;
59008;SDS011;44794;42.652;23.318;2023-06-04T07:28:11;14.05;;;7.15;;
59008;SDS011;44794;42.652;23.318;2023-06-04T07:30:37;10.45;;;7.45;;
59008;SDS011;44794;42.652;23.318;2023-06-04T07:33:03;10.15;;;7.40;;
59008;SDS011;44794;42.652;23.318;2023-06-04T07:35:28;11.55;;;7.95;;
59008;SDS011;44794;42.652;23.318;2023-06-04T07:37:54;10.13;;;7.65;;
59008;SDS011;44794;42.652;23.318;2023-06-04T07:40:19;10.13;;;7.93;;
59008;SDS011;44794;42.652;23.318;2023-06-04T07:42:45;11.48;;;8.93;;
59008;SDS011;44794;42.652;23.318;2023-06-04T07:45:11;12.05;;;8.73;;
59008;SDS011;44794;42.652;23.318;2023-06-04T07:47:37;10.70;;;8.20;;
59008;SDS011;44794;42.652;23.318;2023-06-04T07:50:03;15.38;;;9.00;;
59008;SDS011;44794;42.652;23.318;2023-06-04T07:52:29;11.88;;;9.57;;
59008;SDS011;44794;42.652;23.318;2023-06-04T07:54:55;14.65;;;9.55;;
59008;SDS011;44794;42.652;23.318;2023-06-04T07:57:21;14.32;;;9.40;;
59008;SDS011;44794;42.652;23.318;2023-06-04T07:59:47;13.65;;;9.20;;
59008;SDS011;44794;42.652;23.318;2023-06-04T08:02:12;16.13;;;9.48;;
59008;SDS011;44794;42.652;23.318;2023-06-04T08:04:39;12.98;;;9.50;;
59008;SDS011;44794;42.652;23.318;2023-06-04T08:07:05;16.40;;;8.85;;
59008;SDS011;44794;42.652;23.318;2023-06-04T08:09:31;11.73;;;8.30;;
59008;SDS011;44794;42.652;23.318;2023-06-04T08:11:56;14.77;;;8.55;;
59008;SDS011;44794;42.652;23.318;2023-06-04T08:14:21;13.25;;;9.00;;
59008;SDS011;44794;42.652;23.318;2023-06-04T08:16:48;14.52;;;9.63;;
59008;SDS011;44794;42.652;23.318;2023-06-04T08:19:14;12.63;;;9.50;;
59008;SDS011;44794;42.652;23.318;2023-06-04T08:21:40;15.85;;;9.98;;
59008;SDS011;44794;42.652;23.318;2023-06-04T08:24:08;15.07;;;10.18;;
59008;SDS011;44794;42.652;23.318;2023-06-04T08:26:34;14.30;;;9.60;;
59008;SDS011;44794;42.652;23.318;2023-06-04T08:29:01;13.18;;;10.40;;
59008;SDS011;44794;42.652;23.318;2023-06-04T08:31:28;18.35;;;11.57;;
59008;SDS011;44794;42.652;23.318;2023-06-04T08:33:53;17.35;;;10.82;;
59008;SDS011;44794;42.652;23.318;2023-06-04T08:36:18;14.85;;;10.38;;
59008;SDS011;44794;42.652;23.318;2023-06-04T08:38:44;14.95;;;10.07;;
59008;SDS011;44794;42.652;23.318;2023-06-04T08:41:12;15.63;;;9.63;;
59008;SDS011;44794;42.652;23.318;2023-06-04T08:43:41;13.93;;;9.75;;
59008;SDS011;44794;42.652;23.318;2023-06-04T08:46:09;14.38;;;9.45;;
59008;SDS011;44794;42.652;23.318;2023-06-04T08:48:34;16.10;;;10.70;;
59008;SDS011;44794;42.652;23.318;2023-06-04T08:51:02;14.07;;;10.15;;
59008;SDS011;44794;42.652;23.318;2023-06-04T08:53:30;13.60;;;10.15;;
59008;SDS011;44794;42.652;23.318;2023-06-04T08:55:56;13.70;;;9.20;;
59008;SDS011;44794;42.652;23.318;2023-06-04T08:58:22;18.00;;;10.57;;
59008;SDS011;44794;42.652;23.318;2023-06-04T09:00:48;14.15;;;10.00;;
59008;SDS011;44794;42.652;23.318;2023-06-04T09:03:14;12.20;;;9.27;;
59008;SDS011;44794;42.652;23.318;2023-06-04T09:05:40;13.23;;;8.70;;
59008;SDS011;44794;42.652;23.318;2023-06-04T09:08:12;11.60;;;8.77;;
59008;SDS011;44794;42.652;23.318;2023-06-04T09:10:39;13.50;;;8.43;;
59008;SDS011;44794;42.652;23.318;2023-06-04T09:13:06;13.27;;;8.75;;
59008;SDS011;44794;42.652;23.318;2023-06-04T09:15:33;13.90;;;9.30;;
59008;SDS011;44794;42.652;23.318;2023-06-04T09:17:59;14.65;;;8.55;;
59008;SDS011;44794;42.652;23.318;2023-06-04T09:20:24;15.90;;;10.38;;
59008;SDS011;44794;42.652;23.318;2023-06-04T09:22:50;14.85;;;9.93;;
59008;SDS011;44794;42.652;23.318;2023-06-04T09:25:20;14.05;;;9.82;;
59008;SDS011;44794;42.652;23.318;2023-06-04T09:27:47;15.63;;;11.05;;
59008;SDS011;44794;42.652;23.318;2023-06-04T09:30:13;15.15;;;10.35;;
59008;SDS011;44794;42.652;23.318;2023-06-04T09:32:39;20.17;;;11.45;;
59008;SDS011;44794;42.652;23.318;2023-06-04T09:35:08;14.43;;;10.13;;
59008;SDS011;44794;42.652;23.318;2023-06-04T09:37:34;17.57;;;10.90;;
59008;SDS011;44794;42.652;23.318;2023-06-04T09:40:00;15.20;;;10.75;;
59008;SDS011;44794;42.652;23.318;2023-06-04T09:42:26;13.68;;;10.15;;
59008;SDS011;44794;42.652;23.318;2023-06-04T09:44:53;12.40;;;9.95;;
59008;SDS011;44794;42.652;23.318;2023-06-04T09:47:19;14.18;;;10.27;;
59008;SDS011;44794;42.652;23.318;2023-06-04T09:49:48;15.23;;;10.73;;
59008;SDS011;44794;42.652;23.318;2023-06-04T09:52:16;12.93;;;10.25;;
59008;SDS011;44794;42.652;23.318;2023-06-04T09:54:42;12.90;;;9.95;;
59008;SDS011;44794;42.652;23.318;2023-06-04T09:57:17;14.75;;;10.07;;
59008;SDS011;44794;42.652;23.318;2023-06-04T09:59:44;13.45;;;9.90;;
59008;SDS011;44794;42.652;23.318;2023-06-04T10:02:14;13.60;;;10.20;;
59008;SDS011;44794;42.652;23.318;2023-06-04T10:04:44;15.13;;;9.75;;
59008;SDS011;44794;42.652;23.318;2023-06-04T10:07:14;14.73;;;10.18;;
59008;SDS011;44794;42.652;23.318;2023-06-04T10:09:41;14.93;;;11.05;;
59008;SDS011;44794;42.652;23.318;2023-06-04T10:14:41;14.52;;;10.50;;
59008;SDS011;44794;42.652;23.318;2023-06-04T10:17:11;13.68;;;8.52;;
59008;SDS011;44794;42.652;23.318;2023-06-04T10:19:38;13.10;;;9.13;;
59008;SDS011;44794;42.652;23.318;2023-06-04T10:22:08;13.32;;;9.07;;
59008;SDS011;44794;42.652;23.318;2023-06-04T10:24:36;13.05;;;8.63;;
59008;SDS011;44794;42.652;23.318;2023-06-04T10:27:02;12.85;;;9.00;;
59008;SDS011;44794;42.652;23.318;2023-06-04T10:29:35;12.02;;;8.88;;
59008;SDS011;44794;42.652;23.318;2023-06-04T10:32:01;12.50;;;8.77;;
59008;SDS011;44794;42.652;23.318;2023-06-04T10:34:27;12.35;;;8.40;;
59008;SDS011;44794;42.652;23.318;2023-06-04T10:36:52;14.95;;;9.45;;
59008;SDS011;44794;42.652;23.318;2023-06-04T10:39:28;14.27;;;9.38;;
59008;SDS011;44794;42.652;23.318;2023-06-04T10:42:01;15.32;;;9.55;;
59008;SDS011;44794;42.652;23.318;2023-06-04T10:44:27;12.25;;;9.10;;
59008;SDS011;44794;42.652;23.318;2023-06-04T10:46:56;14.15;;;9.45;;
59008;SDS011;44794;42.652;23.318;2023-06-04T10:49:26;12.40;;;9.27;;
59008;SDS011;44794;42.652;23.318;2023-06-04T10:51:53;15.80;;;10.40;;
59008;SDS011;44794;42.652;23.318;2023-06-04T10:54:24;13.90;;;9.27;;
59008;SDS011;44794;42.652;23.318;2023-06-04T10:56:51;12.32;;;9.85;;
59008;SDS011;44794;42.652;23.318;2023-06-04T10:59:18;13.52;;;9.50;;
59008;SDS011;44794;42.652;23.318;2023-06-04T11:01:44;12.20;;;8.80;;
59008;SDS011;44794;42.652;23.318;2023-06-04T11:04:24;10.75;;;9.05;;
59008;SDS011;44794;42.652;23.318;2023-06-04T11:07:00;12.10;;;9.40;;
59008;SDS011;44794;42.652;23.318;2023-06-04T11:09:36;11.75;;;9.10;;
59008;SDS011;44794;42.652;23.318;2023-06-04T11:12:04;11.05;;;8.35;;
59008;SDS011;44794;42.652;23.318;2023-06-04T11:14:30;12.35;;;8.60;;
59008;SDS011;44794;42.652;23.318;2023-06-04T11:16:56;11.23;;;9.00;;
59008;SDS011;44794;42.652;23.318;2023-06-04T11:19:22;12.85;;;9.70;;
59008;SDS011;44794;42.652;23.318;2023-06-04T11:21:47;12.88;;;9.57;;
59008;SDS011;44794;42.652;23.318;2023-06-04T11:24:14;12.02;;;9.45;;
59008;SDS011;44794;42.652;23.318;2023-06-04T11:26:40;12.95;;;9.40;;
59008;SDS011;44794;42.652;23.318;2023-06-04T11:29:06;15.13;;;9.30;;
59008;SDS011;44794;42.652;23.318;2023-06-04T11:34:21;10.68;;;9.52;;
59008;SDS011;44794;42.652;23.318;2023-06-04T11:36:54;10.52;;;9.43;;
59008;SDS011;44794;42.652;23.318;2023-06-04T11:39:21;13.73;;;9.48;;
59008;SDS011;44794;42.652;23.318;2023-06-04T11:41:47;15.50;;;9.63;;
59008;SDS011;44794;42.652;23.318;2023-06-04T11:44:17;12.55;;;9.20;;
59008;SDS011;44794;42.652;23.318;2023-06-04T11:46:44;12.68;;;9.35;;
59008;SDS011;44794;42.652;23.318;2023-06-04T11:49:17;11.85;;;9.60;;
59008;SDS011;44794;42.652;23.318;2023-06-04T11:51:50;10.98;;;9.18;;
59008;SDS011;44794;42.652;23.318;2023-06-04T11:54:16;13.55;;;9.48;;
59008;SDS011;44794;42.652;23.318;2023-06-04T11:56:43;11.00;;;9.40;;
59008;SDS011;44794;42.652;23.318;2023-06-04T11:59:15;11.20;;;9.77;;
59008;SDS011;44794;42.652;23.318;2023-06-04T12:01:44;15.77;;;10.52;;
59008;SDS011;44794;42.652;23.318;2023-06-04T12:04:14;13.57;;;10.10;;
59008;SDS011;44794;42.652;23.318;2023-06-04T12:06:59;12.57;;;9.77;;
59008;SDS011;44794;42.652;23.318;2023-06-04T12:09:30;18.90;;;10.65;;
59008;SDS011;44794;42.652;23.318;2023-06-04T12:11:58;15.05;;;10.07;;
59008;SDS011;44794;42.652;23.318;2023-06-04T12:14:24;12.15;;;10.88;;
59008;SDS011;44794;42.652;23.318;2023-06-04T12:17:00;12.93;;;10.82;;
59008;SDS011;44794;42.652;23.318;2023-06-04T12:19:33;12.82;;;10.98;;
59008;SDS011;44794;42.652;23.318;2023-06-04T12:21:59;15.07;;;11.15;;
59008;SDS011;44794;42.652;23.318;2023-06-04T12:27:02;12.23;;;10.93;;
59008;SDS011;44794;42.652;23.318;2023-06-04T12:29:27;18.30;;;12.05;;
59008;SDS011;44794;42.652;23.318;2023-06-04T12:32:00;13.18;;;11.40;;
59008;SDS011;44794;42.652;23.318;2023-06-04T12:34:28;13.63;;;12.02;;
59008;SDS011;44794;42.652;23.318;2023-06-04T12:36:53;13.10;;;11.15;;
59008;SDS011;44794;42.652;23.318;2023-06-04T12:39:19;16.45;;;11.93;;
59008;SDS011;44794;42.652;23.318;2023-06-04T12:41:45;14.57;;;12.55;;
59008;SDS011;44794;42.652;23.318;2023-06-04T12:44:11;14.25;;;12.00;;
59008;SDS011;44794;42.652;23.318;2023-06-04T12:46:36;13.88;;;12.43;;
59008;SDS011;44794;42.652;23.318;2023-06-04T12:49:02;14.55;;;12.25;;
59008;SDS011;44794;42.652;23.318;2023-06-04T12:51:27;17.08;;;12.20;;
59008;SDS011;44794;42.652;23.318;2023-06-04T12:53:53;14.50;;;12.23;;
59008;SDS011;44794;42.652;23.318;2023-06-04T12:56:19;18.63;;;13.48;;
59008;SDS011;44794;42.652;23.318;2023-06-04T12:58:44;17.70;;;15.10;;
59008;SDS011;44794;42.652;23.318;2023-06-04T13:01:10;17.52;;;15.10;;
59008;SDS011;44794;42.652;23.318;2023-06-04T13:03:36;17.83;;;15.05;;
59008;SDS011;44794;42.652;23.318;2023-06-04T13:06:03;18.08;;;15.85;;
59008;SDS011;44794;42.652;23.318;2023-06-04T13:08:28;17.50;;;15.02;;
59008;SDS011;44794;42.652;23.318;2023-06-04T13:10:54;19.98;;;15.85;;
59008;SDS011;44794;42.652;23.318;2023-06-04T13:13:19;20.35;;;15.38;;
59008;SDS011;44794;42.652;23.318;2023-06-04T13:15:45;17.60;;;15.55;;
59008;SDS011;44794;42.652;23.318;2023-06-04T13:18:11;18.38;;;16.42;;
59008;SDS011;44794;42.652;23.318;2023-06-04T13:20:37;16.98;;;12.93;;
59008;SDS011;44794;42.652;23.318;2023-06-04T13:23:05;14.23;;;12.00;;
59008;SDS011;44794;42.652;23.318;2023-06-04T13:25:30;14.57;;;11.30;;
59008;SDS011;44794;42.652;23.318;2023-06-04T13:27:58;16.40;;;10.90;;
59008;SDS011;44794;42.652;23.318;2023-06-04T13:30:27;15.43;;;11.02;;
59008;SDS011;44794;42.652;23.318;2023-06-04T13:32:53;13.85;;;10.48;;
59008;SDS011;44794;42.652;23.318;2023-06-04T13:35:19;13.20;;;10.25;;
59008;SDS011;44794;42.652;23.318;2023-06-04T13:37:45;12.80;;;9.93;;
59008;SDS011;44794;42.652;23.318;2023-06-04T13:40:10;13.70;;;9.50;;
59008;SDS011;44794;42.652;23.318;2023-06-04T13:42:36;10.32;;;8.93;;
59008;SDS011;44794;42.652;23.318;2023-06-04T13:45:01;14.57;;;9.50;;
59008;SDS011;44794;42.652;23.318;2023-06-04T13:47:27;13.07;;;9.45;;
59008;SDS011;44794;42.652;23.318;2023-06-04T13:49:53;16.13;;;10.10;;
59008;SDS011;44794;42.652;23.318;2023-06-04T13:52:18;11.27;;;10.00;;
59008;SDS011;44794;42.652;23.318;2023-06-04T13:54:44;11.88;;;9.90;;
59008;SDS011;44794;42.652;23.318;2023-06-04T13:57:09;10.40;;;9.30;;
59008;SDS011;44794;42.652;23.318;2023-06-04T13:59:38;11.45;;;9.45;;
59008;SDS011;44794;42.652;23.318;2023-06-04T14:02:04;13.65;;;9.25;;
59008;SDS011;44794;42.652;23.318;2023-06-04T14:04:30;11.98;;;9.65;;
59008;SDS011;44794;42.652;23.318;2023-06-04T14:06:55;10.15;;;8.68;;
59008;SDS011;44794;42.652;23.318;2023-06-04T14:09:21;10.88;;;9.20;;
59008;SDS011;44794;42.652;23.318;2023-06-04T14:11:46;12.23;;;9.70;;
59008;SDS011;44794;42.652;23.318;2023-06-04T14:14:15;10.55;;;9.20;;
59008;SDS011;44794;42.652;23.318;2023-06-04T14:16:44;11.52;;;9.80;;
59008;SDS011;44794;42.652;23.318;2023-06-04T14:19:09;11.77;;;10.00;;
59008;SDS011;44794;42.652;23.318;2023-06-04T14:21:35;13.20;;;9.73;;
59008;SDS011;44794;42.652;23.318;2023-06-04T14:24:01;15.20;;;10.35;;
59008;SDS011;44794;42.652;23.318;2023-06-04T14:26:26;12.13;;;10.02;;
59008;SDS011;44794;42.652;23.318;2023-06-04T14:28:53;11.55;;;10.20;;